Terminal Aerodrome Forecast
Issued by NWS

Home | Current Version | Previous Version | Text Only | Print | Product List | Glossary On
Versions: 1 2 3 4 5 6 7 8 9 10 11 12
000
FTUS44 KCRP 300526
TAFLRD
TAF
KLRD 300526Z 3006/3106 12007KT P6SM FEW250
     FM301100 12007KT P6SM SCT012 BKN250
     FM301400 12008KT P6SM FEW050 SCT250
     FM310300 12015KT P6SM SCT250=

USA.gov is the U.S. government's official web portal to all federal, state and local government web resources and services.